KGSO/GSO METAR and TAF weather

Enter ICAO airport designator
Station Type Date Time Source
KGSO METAR 2021/09/16 10:54 UTC NOAA

KGSO 161054Z 00000KT 10SM FEW090 BKN130 OVC250 21/20 A3007 RMK AO2 RAE01 SLP170 P0000 T02110200


Station Type Date Time Source
KGSO Decoded METAR 2021/09/16 10:54 UTC NOAA

PIEDMONT TRIAD INTERNATIONAL AIRPORT , NC, United States (KGSO) 36-06N 079-57W 275M
Sep 16, 2021 - 06:54 AM EDT / 2021.09.16 1054 UTC
Wind: Calm:0
Visibility: 10 mile(s):0
Sky conditions: overcast
Precipitation last hour: A trace
Temperature: 70.0 F (21.1 C)
Dew Point: 68.0 F (20.0 C)
Relative Humidity: 93%
Pressure (altimeter): 30.07 in. Hg (1018 hPa)
ob: KGSO 161054Z 00000KT 10SM FEW090 BKN130 OVC250 21/20 A3007 RMK AO2 RAE01 SLP170 P0000 T02110200
cycle: 11

Station Type Date Time Source
KGSO TAF 2021/09/16 12:22 UTC NOAA

TAF KGSO 161120Z 1612/1712 35003KT P6SM VCSH SCT110 OVC140
FM161400 VRB04KT P6SM VCSH BKN040 OVC150
FM170300 VRB03KT 6SM -SHRA BR OVC040
FM170900 03004KT 6SM BR BKN012 OVC100

Example: see airport list